sensor_id;sensor_type;location;lat;lon;timestamp;pressure;altitude;pressure_sealevel;temperature
48003;BMP280;33768;48.578;11.574;2023-04-25T00:02:36;95822.06;;;7.11
48003;BMP280;33768;48.578;11.574;2023-04-25T00:05:40;95826.00;;;7.10
48003;BMP280;33768;48.578;11.574;2023-04-25T00:08:43;95836.00;;;7.02
48003;BMP280;33768;48.578;11.574;2023-04-25T00:11:48;95823.22;;;6.97
48003;BMP280;33768;48.578;11.574;2023-04-25T00:14:52;95834.91;;;6.92
48003;BMP280;33768;48.578;11.574;2023-04-25T00:17:56;95839.19;;;6.88
48003;BMP280;33768;48.578;11.574;2023-04-25T00:21:01;95834.34;;;6.81
48003;BMP280;33768;48.578;11.574;2023-04-25T00:24:05;95842.25;;;6.79
48003;BMP280;33768;48.578;11.574;2023-04-25T00:27:09;95832.19;;;6.74
48003;BMP280;33768;48.578;11.574;2023-04-25T00:30:14;95829.88;;;6.65
48003;BMP280;33768;48.578;11.574;2023-04-25T00:33:18;95842.97;;;6.61
48003;BMP280;33768;48.578;11.574;2023-04-25T00:36:22;95840.25;;;6.61
48003;BMP280;33768;48.578;11.574;2023-04-25T00:39:26;95834.84;;;6.61
48003;BMP280;33768;48.578;11.574;2023-04-25T00:42:31;95838.81;;;6.60
48003;BMP280;33768;48.578;11.574;2023-04-25T00:45:38;95827.97;;;6.60
48003;BMP280;33768;48.578;11.574;2023-04-25T00:48:43;95829.41;;;6.61
48003;BMP280;33768;48.578;11.574;2023-04-25T00:51:47;95829.41;;;6.61
48003;BMP280;33768;48.578;11.574;2023-04-25T00:54:51;95833.59;;;6.62
48003;BMP280;33768;48.578;11.574;2023-04-25T00:57:56;95833.31;;;6.66
48003;BMP280;33768;48.578;11.574;2023-04-25T01:01:00;95827.81;;;6.71
48003;BMP280;33768;48.578;11.574;2023-04-25T01:04:04;95817.59;;;6.77
48003;BMP280;33768;48.578;11.574;2023-04-25T01:07:09;95833.59;;;6.81
48003;BMP280;33768;48.578;11.574;2023-04-25T01:10:13;95815.03;;;6.85
48003;BMP280;33768;48.578;11.574;2023-04-25T01:13:17;95824.13;;;6.87
48003;BMP280;33768;48.578;11.574;2023-04-25T01:16:21;95820.59;;;6.92
48003;BMP280;33768;48.578;11.574;2023-04-25T01:19:27;95824.03;;;6.92
48003;BMP280;33768;48.578;11.574;2023-04-25T01:22:32;95819.56;;;6.95
48003;BMP280;33768;48.578;11.574;2023-04-25T01:25:37;95821.47;;;7.00
48003;BMP280;33768;48.578;11.574;2023-04-25T01:28:41;95815.47;;;7.07
48003;BMP280;33768;48.578;11.574;2023-04-25T01:31:46;95804.81;;;7.09
48003;BMP280;33768;48.578;11.574;2023-04-25T01:34:50;95809.44;;;7.14
48003;BMP280;33768;48.578;11.574;2023-04-25T01:37:54;95814.56;;;7.17
48003;BMP280;33768;48.578;11.574;2023-04-25T01:40:58;95806.63;;;7.19
48003;BMP280;33768;48.578;11.574;2023-04-25T01:44:03;95804.66;;;7.19
48003;BMP280;33768;48.578;11.574;2023-04-25T01:47:08;95805.69;;;7.17
48003;BMP280;33768;48.578;11.574;2023-04-25T01:50:12;95793.88;;;7.14
48003;BMP280;33768;48.578;11.574;2023-04-25T01:53:16;95791.91;;;7.15
48003;BMP280;33768;48.578;11.574;2023-04-25T01:56:22;95803.47;;;7.15
48003;BMP280;33768;48.578;11.574;2023-04-25T01:59:26;95802.97;;;7.17
48003;BMP280;33768;48.578;11.574;2023-04-25T02:02:50;95796.28;;;7.17
48003;BMP280;33768;48.578;11.574;2023-04-25T02:06:03;95805.38;;;7.20
48003;BMP280;33768;48.578;11.574;2023-04-25T02:09:09;95793.78;;;7.19
48003;BMP280;33768;48.578;11.574;2023-04-25T02:12:18;95789.31;;;7.22
48003;BMP280;33768;48.578;11.574;2023-04-25T02:15:48;95787.78;;;7.26
48003;BMP280;33768;48.578;11.574;2023-04-25T02:18:53;95784.00;;;7.29
48003;BMP280;33768;48.578;11.574;2023-04-25T02:21:57;95786.50;;;7.27
48003;BMP280;33768;48.578;11.574;2023-04-25T02:25:02;95794.44;;;7.25
48003;BMP280;33768;48.578;11.574;2023-04-25T02:28:08;95798.91;;;7.23
48003;BMP280;33768;48.578;11.574;2023-04-25T02:31:13;95796.94;;;7.23
48003;BMP280;33768;48.578;11.574;2023-04-25T02:34:17;95796.94;;;7.23
48003;BMP280;33768;48.578;11.574;2023-04-25T02:37:21;95793.28;;;7.21
48003;BMP280;33768;48.578;11.574;2023-04-25T02:40:26;95790.03;;;7.22
48003;BMP280;33768;48.578;11.574;2023-04-25T02:43:32;95780.66;;;7.23
48003;BMP280;33768;48.578;11.574;2023-04-25T02:46:36;95779.41;;;7.24
48003;BMP280;33768;48.578;11.574;2023-04-25T02:49:40;95775.25;;;7.23
48003;BMP280;33768;48.578;11.574;2023-04-25T02:52:44;95775.53;;;7.20
48003;BMP280;33768;48.578;11.574;2023-04-25T02:55:55;95786.69;;;7.17
48003;BMP280;33768;48.578;11.574;2023-04-25T02:59:01;95791.47;;;7.11
48003;BMP280;33768;48.578;11.574;2023-04-25T03:02:07;95784.34;;;7.08
48003;BMP280;33768;48.578;11.574;2023-04-25T03:05:11;95775.56;;;7.02
48003;BMP280;33768;48.578;11.574;2023-04-25T03:08:16;95775.34;;;7.00
48003;BMP280;33768;48.578;11.574;2023-04-25T03:11:21;95765.22;;;7.00
48003;BMP280;33768;48.578;11.574;2023-04-25T03:14:24;95763.47;;;7.03
48003;BMP280;33768;48.578;11.574;2023-04-25T03:17:28;95756.59;;;7.02
48003;BMP280;33768;48.578;11.574;2023-04-25T03:20:33;95759.28;;;7.02
48003;BMP280;33768;48.578;11.574;2023-04-25T03:23:37;95756.59;;;7.02
48003;BMP280;33768;48.578;11.574;2023-04-25T03:26:41;95758.78;;;7.03
48003;BMP280;33768;48.578;11.574;2023-04-25T03:29:46;95751.38;;;7.04
48003;BMP280;33768;48.578;11.574;2023-04-25T03:32:50;95752.53;;;7.08
48003;BMP280;33768;48.578;11.574;2023-04-25T03:35:55;95755.31;;;7.03
48003;BMP280;33768;48.578;11.574;2023-04-25T03:38:59;95753.44;;;6.98
48003;BMP280;33768;48.578;11.574;2023-04-25T03:42:04;95753.22;;;6.96
48003;BMP280;33768;48.578;11.574;2023-04-25T03:45:08;95749.03;;;6.95
48003;BMP280;33768;48.578;11.574;2023-04-25T03:48:12;95745.81;;;6.96
48003;BMP280;33768;48.578;11.574;2023-04-25T03:51:16;95753.88;;;7.02
48003;BMP280;33768;48.578;11.574;2023-04-25T03:54:22;95766.16;;;7.03
48003;BMP280;33768;48.578;11.574;2023-04-25T03:57:37;95758.78;;;7.03
48003;BMP280;33768;48.578;11.574;2023-04-25T04:00:41;95752.31;;;7.06
48003;BMP280;33768;48.578;11.574;2023-04-25T04:03:46;95759.94;;;7.08
48003;BMP280;33768;48.578;11.574;2023-04-25T04:06:50;95756.94;;;7.11
48003;BMP280;33768;48.578;11.574;2023-04-25T04:10:02;95760.38;;;7.12
48003;BMP280;33768;48.578;11.574;2023-04-25T04:13:12;95755.16;;;7.14
48003;BMP280;33768;48.578;11.574;2023-04-25T04:16:16;95764.03;;;7.14
48003;BMP280;33768;48.578;11.574;2023-04-25T04:19:21;95760.06;;;7.15
48003;BMP280;33768;48.578;11.574;2023-04-25T04:22:33;95756.31;;;7.18
48003;BMP280;33768;48.578;11.574;2023-04-25T04:25:43;95755.81;;;7.19
48003;BMP280;33768;48.578;11.574;2023-04-25T04:29:05;95741.91;;;7.23
48003;BMP280;33768;48.578;11.574;2023-04-25T04:32:34;95762.06;;;7.27
48003;BMP280;33768;48.578;11.574;2023-04-25T04:35:41;95763.56;;;7.28
48003;BMP280;33768;48.578;11.574;2023-04-25T04:38:46;95762.31;;;7.29
48003;BMP280;33768;48.578;11.574;2023-04-25T04:41:58;95770.88;;;7.33
48003;BMP280;33768;48.578;11.574;2023-04-25T04:45:20;95779.22;;;7.35
48003;BMP280;33768;48.578;11.574;2023-04-25T04:48:44;95783.41;;;7.36
48003;BMP280;33768;48.578;11.574;2023-04-25T04:51:52;95788.09;;;7.36
48003;BMP280;33768;48.578;11.574;2023-04-25T04:55:14;95790.75;;;7.41
48003;BMP280;33768;48.578;11.574;2023-04-25T04:58:28;95791.38;;;7.47
48003;BMP280;33768;48.578;11.574;2023-04-25T05:02:03;95784.28;;;7.57
48003;BMP280;33768;48.578;11.574;2023-04-25T05:05:38;95781.69;;;7.64
48003;BMP280;33768;48.578;11.574;2023-04-25T05:08:49;95773.13;;;7.73
48003;BMP280;33768;48.578;11.574;2023-04-25T05:11:56;95769.69;;;7.85
48003;BMP280;33768;48.578;11.574;2023-04-25T05:15:07;95778.88;;;7.95
48003;BMP280;33768;48.578;11.574;2023-04-25T05:18:50;95782.66;;;8.05
48003;BMP280;33768;48.578;11.574;2023-04-25T05:22:30;95788.44;;;8.14
48003;BMP280;33768;48.578;11.574;2023-04-25T05:26:04;95771.69;;;8.23
48003;BMP280;33768;48.578;11.574;2023-04-25T05:29:16;95773.13;;;8.50
48003;BMP280;33768;48.578;11.574;2023-04-25T05:32:38;95770.91;;;8.48
48003;BMP280;33768;48.578;11.574;2023-04-25T05:35:42;95771.88;;;8.38
48003;BMP280;33768;48.578;11.574;2023-04-25T05:38:48;95769.69;;;8.37
48003;BMP280;33768;48.578;11.574;2023-04-25T05:41:58;95775.53;;;8.41
48003;BMP280;33768;48.578;11.574;2023-04-25T05:45:22;95772.38;;;8.49
48003;BMP280;33768;48.578;11.574;2023-04-25T05:48:48;95774.44;;;8.56
48003;BMP280;33768;48.578;11.574;2023-04-25T05:52:10;95774.06;;;8.52
48003;BMP280;33768;48.578;11.574;2023-04-25T05:55:25;95777.59;;;8.60
48003;BMP280;33768;48.578;11.574;2023-04-25T05:58:29;95765.19;;;8.85
48003;BMP280;33768;48.578;11.574;2023-04-25T06:01:34;95773.72;;;8.89
48003;BMP280;33768;48.578;11.574;2023-04-25T06:04:39;95764.84;;;8.88
48003;BMP280;33768;48.578;11.574;2023-04-25T06:07:43;95772.16;;;8.93
48003;BMP280;33768;48.578;11.574;2023-04-25T06:10:48;95773.25;;;9.10
48003;BMP280;33768;48.578;11.574;2023-04-25T06:13:52;95769.97;;;9.32
48003;BMP280;33768;48.578;11.574;2023-04-25T06:16:56;95768.06;;;9.40
48003;BMP280;33768;48.578;11.574;2023-04-25T06:20:01;95772.38;;;9.36
48003;BMP280;33768;48.578;11.574;2023-04-25T06:23:06;95761.69;;;9.37
48003;BMP280;33768;48.578;11.574;2023-04-25T06:26:22;95771.75;;;9.50
48003;BMP280;33768;48.578;11.574;2023-04-25T06:29:27;95763.16;;;9.86
48003;BMP280;33768;48.578;11.574;2023-04-25T06:32:31;95758.16;;;10.32
48003;BMP280;33768;48.578;11.574;2023-04-25T06:35:37;95758.69;;;10.66
48003;BMP280;33768;48.578;11.574;2023-04-25T06:38:42;95753.97;;;10.74
48003;BMP280;33768;48.578;11.574;2023-04-25T06:41:46;95751.06;;;10.72
48003;BMP280;33768;48.578;11.574;2023-04-25T06:45:13;95761.41;;;10.66
48003;BMP280;33768;48.578;11.574;2023-04-25T06:48:18;95765.38;;;10.58
48003;BMP280;33768;48.578;11.574;2023-04-25T06:51:22;95761.78;;;10.28
48003;BMP280;33768;48.578;11.574;2023-04-25T06:54:30;95763.56;;;10.25
48003;BMP280;33768;48.578;11.574;2023-04-25T06:57:42;95754.78;;;10.12
48003;BMP280;33768;48.578;11.574;2023-04-25T07:01:06;95774.16;;;10.29
48003;BMP280;33768;48.578;11.574;2023-04-25T07:04:10;95778.38;;;10.37
48003;BMP280;33768;48.578;11.574;2023-04-25T07:07:20;95768.63;;;10.49
48003;BMP280;33768;48.578;11.574;2023-04-25T07:10:31;95770.38;;;10.81
48003;BMP280;33768;48.578;11.574;2023-04-25T07:13:35;95772.56;;;10.83
48003;BMP280;33768;48.578;11.574;2023-04-25T07:16:40;95764.75;;;10.87
48003;BMP280;33768;48.578;11.574;2023-04-25T07:19:44;95771.69;;;11.02
48003;BMP280;33768;48.578;11.574;2023-04-25T07:22:48;95767.13;;;10.97
48003;BMP280;33768;48.578;11.574;2023-04-25T07:25:53;95772.78;;;10.99
48003;BMP280;33768;48.578;11.574;2023-04-25T07:29:01;95765.69;;;10.96
48003;BMP280;33768;48.578;11.574;2023-04-25T07:32:06;95761.88;;;11.07
48003;BMP280;33768;48.578;11.574;2023-04-25T07:35:10;95760.59;;;11.08
48003;BMP280;33768;48.578;11.574;2023-04-25T07:38:14;95769.53;;;11.08
48003;BMP280;33768;48.578;11.574;2023-04-25T07:41:18;95769.91;;;11.12
48003;BMP280;33768;48.578;11.574;2023-04-25T07:44:23;95761.75;;;11.34
48003;BMP280;33768;48.578;11.574;2023-04-25T07:47:27;95758.50;;;11.80
48003;BMP280;33768;48.578;11.574;2023-04-25T07:50:31;95753.69;;;12.79
48003;BMP280;33768;48.578;11.574;2023-04-25T07:53:36;95757.41;;;13.61
48003;BMP280;33768;48.578;11.574;2023-04-25T07:56:45;95752.56;;;13.44
48003;BMP280;33768;48.578;11.574;2023-04-25T07:59:50;95745.50;;;13.82
48003;BMP280;33768;48.578;11.574;2023-04-25T08:02:54;95745.72;;;14.51
48003;BMP280;33768;48.578;11.574;2023-04-25T08:05:58;95752.47;;;15.27
48003;BMP280;33768;48.578;11.574;2023-04-25T08:09:05;95755.00;;;15.41
48003;BMP280;33768;48.578;11.574;2023-04-25T08:12:15;95747.28;;;16.11
48003;BMP280;33768;48.578;11.574;2023-04-25T08:15:19;95758.22;;;16.37
48003;BMP280;33768;48.578;11.574;2023-04-25T08:18:25;95752.53;;;17.10
48003;BMP280;33768;48.578;11.574;2023-04-25T08:21:30;95755.78;;;16.78
48003;BMP280;33768;48.578;11.574;2023-04-25T08:24:38;95760.75;;;15.62
48003;BMP280;33768;48.578;11.574;2023-04-25T08:27:43;95768.72;;;14.89
48003;BMP280;33768;48.578;11.574;2023-04-25T08:30:48;95776.34;;;14.14
48003;BMP280;33768;48.578;11.574;2023-04-25T08:33:53;95768.03;;;12.48
48003;BMP280;33768;48.578;11.574;2023-04-25T08:37:10;95776.91;;;11.87
48003;BMP280;33768;48.578;11.574;2023-04-25T08:40:35;95757.41;;;11.54
48003;BMP280;33768;48.578;11.574;2023-04-25T08:43:46;95761.97;;;11.58
48003;BMP280;33768;48.578;11.574;2023-04-25T08:46:52;95762.34;;;11.85
48003;BMP280;33768;48.578;11.574;2023-04-25T08:50:05;95764.88;;;13.60
48003;BMP280;33768;48.578;11.574;2023-04-25T08:53:12;95755.81;;;14.15
48003;BMP280;33768;48.578;11.574;2023-04-25T08:56:20;95766.81;;;15.08
48003;BMP280;33768;48.578;11.574;2023-04-25T08:59:27;95757.81;;;15.86
48003;BMP280;33768;48.578;11.574;2023-04-25T09:02:32;95768.91;;;15.79
48003;BMP280;33768;48.578;11.574;2023-04-25T09:05:37;95767.78;;;15.03
48003;BMP280;33768;48.578;11.574;2023-04-25T09:08:41;95769.59;;;14.92
48003;BMP280;33768;48.578;11.574;2023-04-25T09:11:45;95774.41;;;14.41
48003;BMP280;33768;48.578;11.574;2023-04-25T09:18:31;95778.50;;;13.19
48003;BMP280;33768;48.578;11.574;2023-04-25T09:21:37;95780.91;;;12.77
48003;BMP280;33768;48.578;11.574;2023-04-25T09:24:44;95782.53;;;12.72
48003;BMP280;33768;48.578;11.574;2023-04-25T09:27:52;95778.22;;;13.64
48003;BMP280;33768;48.578;11.574;2023-04-25T09:31:01;95783.41;;;15.18
48003;BMP280;33768;48.578;11.574;2023-04-25T09:34:18;95794.03;;;14.54
48003;BMP280;33768;48.578;11.574;2023-04-25T09:37:30;95787.66;;;13.46
48003;BMP280;33768;48.578;11.574;2023-04-25T09:40:58;95795.16;;;13.14
48003;BMP280;33768;48.578;11.574;2023-04-25T09:44:23;95800.91;;;13.25
48003;BMP280;33768;48.578;11.574;2023-04-25T09:47:28;95801.31;;;13.53
48003;BMP280;33768;48.578;11.574;2023-04-25T09:50:33;95810.03;;;13.59
48003;BMP280;33768;48.578;11.574;2023-04-25T09:53:46;95805.69;;;13.56
48003;BMP280;33768;48.578;11.574;2023-04-25T09:57:11;95799.28;;;13.22
48003;BMP280;33768;48.578;11.574;2023-04-25T10:00:16;95799.50;;;13.17
48003;BMP280;33768;48.578;11.574;2023-04-25T10:03:22;95803.63;;;13.33
48003;BMP280;33768;48.578;11.574;2023-04-25T10:06:42;95807.50;;;14.76
48003;BMP280;33768;48.578;11.574;2023-04-25T10:09:48;95821.69;;;16.29
48003;BMP280;33768;48.578;11.574;2023-04-25T10:12:56;95813.00;;;15.62
48003;BMP280;33768;48.578;11.574;2023-04-25T10:16:03;95819.81;;;14.01
48003;BMP280;33768;48.578;11.574;2023-04-25T10:19:09;95822.44;;;12.97
48003;BMP280;33768;48.578;11.574;2023-04-25T10:22:38;95827.91;;;12.14
48003;BMP280;33768;48.578;11.574;2023-04-25T10:25:43;95836.66;;;11.61
48003;BMP280;33768;48.578;11.574;2023-04-25T10:28:58;95832.22;;;11.28
48003;BMP280;33768;48.578;11.574;2023-04-25T10:32:03;95829.31;;;11.34
48003;BMP280;33768;48.578;11.574;2023-04-25T10:38:19;95824.47;;;11.69
48003;BMP280;33768;48.578;11.574;2023-04-25T10:41:23;95832.31;;;11.65
48003;BMP280;33768;48.578;11.574;2023-04-25T10:44:31;95827.31;;;12.60
48003;BMP280;33768;48.578;11.574;2023-04-25T10:47:36;95828.88;;;13.55
48003;BMP280;33768;48.578;11.574;2023-04-25T10:50:40;95834.13;;;14.16
48003;BMP280;33768;48.578;11.574;2023-04-25T10:54:02;95833.72;;;13.40
48003;BMP280;33768;48.578;11.574;2023-04-25T10:57:06;95835.31;;;13.19
48003;BMP280;33768;48.578;11.574;2023-04-25T11:00:15;95841.28;;;13.25
48003;BMP280;33768;48.578;11.574;2023-04-25T11:03:21;95836.41;;;13.16
48003;BMP280;33768;48.578;11.574;2023-04-25T11:06:46;95836.75;;;12.74
48003;BMP280;33768;48.578;11.574;2023-04-25T11:09:54;95849.25;;;12.30
48003;BMP280;33768;48.578;11.574;2023-04-25T11:12:58;95844.31;;;12.14
48003;BMP280;33768;48.578;11.574;2023-04-25T11:16:07;95847.03;;;12.51
48003;BMP280;33768;48.578;11.574;2023-04-25T11:19:12;95852.84;;;13.23
48003;BMP280;33768;48.578;11.574;2023-04-25T11:22:16;95859.91;;;13.34
48003;BMP280;33768;48.578;11.574;2023-04-25T11:25:22;95863.13;;;13.08
48003;BMP280;33768;48.578;11.574;2023-04-25T11:28:27;95850.88;;;13.09
48003;BMP280;33768;48.578;11.574;2023-04-25T11:31:31;95848.63;;;13.22
48003;BMP280;33768;48.578;11.574;2023-04-25T11:34:35;95856.59;;;13.35
48003;BMP280;33768;48.578;11.574;2023-04-25T11:37:39;95856.34;;;13.48
48003;BMP280;33768;48.578;11.574;2023-04-25T11:40:43;95854.72;;;13.45
48003;BMP280;33768;48.578;11.574;2023-04-25T11:43:48;95861.44;;;13.51
48003;BMP280;33768;48.578;11.574;2023-04-25T11:46:53;95866.41;;;13.45
48003;BMP280;33768;48.578;11.574;2023-04-25T11:50:01;95865.38;;;13.34
48003;BMP280;33768;48.578;11.574;2023-04-25T11:53:06;95863.00;;;13.30
48003;BMP280;33768;48.578;11.574;2023-04-25T11:56:12;95868.81;;;13.42
48003;BMP280;33768;48.578;11.574;2023-04-25T11:59:16;95873.94;;;13.38
48003;BMP280;33768;48.578;11.574;2023-04-25T12:02:26;95872.91;;;13.26
48003;BMP280;33768;48.578;11.574;2023-04-25T12:05:31;95876.84;;;13.40
48003;BMP280;33768;48.578;11.574;2023-04-25T12:08:36;95884.47;;;13.56
48003;BMP280;33768;48.578;11.574;2023-04-25T12:11:45;95876.47;;;13.75
48003;BMP280;33768;48.578;11.574;2023-04-25T12:14:50;95887.94;;;13.80
48003;BMP280;33768;48.578;11.574;2023-04-25T12:17:54;95885.59;;;13.77
48003;BMP280;33768;48.578;11.574;2023-04-25T12:20:58;95885.00;;;13.86
48003;BMP280;33768;48.578;11.574;2023-04-25T12:24:21;95883.22;;;13.81
48003;BMP280;33768;48.578;11.574;2023-04-25T12:27:27;95883.06;;;13.96
48003;BMP280;33768;48.578;11.574;2023-04-25T12:30:54;95891.47;;;14.29
48003;BMP280;33768;48.578;11.574;2023-04-25T12:33:59;95891.19;;;14.42
48003;BMP280;33768;48.578;11.574;2023-04-25T12:37:03;95893.75;;;14.40
48003;BMP280;33768;48.578;11.574;2023-04-25T12:40:07;95891.28;;;14.27
48003;BMP280;33768;48.578;11.574;2023-04-25T12:43:11;95902.72;;;13.85
48003;BMP280;33768;48.578;11.574;2023-04-25T12:46:15;95898.16;;;13.56
48003;BMP280;33768;48.578;11.574;2023-04-25T12:49:19;95893.06;;;13.52
48003;BMP280;33768;48.578;11.574;2023-04-25T12:52:23;95892.97;;;13.36
48003;BMP280;33768;48.578;11.574;2023-04-25T12:55:28;95903.44;;;13.15
48003;BMP280;33768;48.578;11.574;2023-04-25T12:58:32;95898.09;;;12.85
48003;BMP280;33768;48.578;11.574;2023-04-25T13:01:37;95897.38;;;12.63
48003;BMP280;33768;48.578;11.574;2023-04-25T13:04:41;95899.41;;;12.48
48003;BMP280;33768;48.578;11.574;2023-04-25T13:07:45;95913.28;;;12.27
48003;BMP280;33768;48.578;11.574;2023-04-25T13:10:49;95927.63;;;11.76
48003;BMP280;33768;48.578;11.574;2023-04-25T13:13:53;95935.09;;;11.26
48003;BMP280;33768;48.578;11.574;2023-04-25T13:16:57;95935.13;;;10.91
48003;BMP280;33768;48.578;11.574;2023-04-25T13:20:02;95943.09;;;10.54
48003;BMP280;33768;48.578;11.574;2023-04-25T13:23:08;95925.63;;;10.30
48003;BMP280;33768;48.578;11.574;2023-04-25T13:26:13;95921.63;;;10.30
48003;BMP280;33768;48.578;11.574;2023-04-25T13:29:16;95931.50;;;10.61
48003;BMP280;33768;48.578;11.574;2023-04-25T13:32:20;95928.88;;;10.83
48003;BMP280;33768;48.578;11.574;2023-04-25T13:35:25;95932.16;;;10.82
48003;BMP280;33768;48.578;11.574;2023-04-25T13:38:29;95933.25;;;10.79
48003;BMP280;33768;48.578;11.574;2023-04-25T13:41:33;95937.94;;;10.71
48003;BMP280;33768;48.578;11.574;2023-04-25T13:44:38;95943.84;;;10.34
48003;BMP280;33768;48.578;11.574;2023-04-25T13:47:41;95953.63;;;10.10
48003;BMP280;33768;48.578;11.574;2023-04-25T13:50:46;95943.44;;;10.10
48003;BMP280;33768;48.578;11.574;2023-04-25T13:53:50;95952.69;;;10.07
48003;BMP280;33768;48.578;11.574;2023-04-25T13:56:54;95946.72;;;10.29
48003;BMP280;33768;48.578;11.574;2023-04-25T14:00:04;95944.00;;;10.57
48003;BMP280;33768;48.578;11.574;2023-04-25T14:03:12;95950.66;;;10.76
48003;BMP280;33768;48.578;11.574;2023-04-25T14:06:16;95944.00;;;10.84
48003;BMP280;33768;48.578;11.574;2023-04-25T14:09:26;95946.88;;;11.06
48003;BMP280;33768;48.578;11.574;2023-04-25T14:12:32;95948.56;;;11.24
48003;BMP280;33768;48.578;11.574;2023-04-25T14:15:36;95954.69;;;11.45
48003;BMP280;33768;48.578;11.574;2023-04-25T14:18:40;95954.09;;;11.39
48003;BMP280;33768;48.578;11.574;2023-04-25T14:21:44;95957.84;;;11.21
48003;BMP280;33768;48.578;11.574;2023-04-25T14:24:50;95957.22;;;11.08
48003;BMP280;33768;48.578;11.574;2023-04-25T14:27:54;95971.53;;;10.93
48003;BMP280;33768;48.578;11.574;2023-04-25T14:30:58;95977.22;;;10.75
48003;BMP280;33768;48.578;11.574;2023-04-25T14:34:02;95986.66;;;10.67
48003;BMP280;33768;48.578;11.574;2023-04-25T14:37:06;95980.50;;;10.46
48003;BMP280;33768;48.578;11.574;2023-04-25T14:40:11;95981.69;;;10.18
48003;BMP280;33768;48.578;11.574;2023-04-25T14:43:17;95988.81;;;9.88
48003;BMP280;33768;48.578;11.574;2023-04-25T14:46:21;95979.00;;;9.52
48003;BMP280;33768;48.578;11.574;2023-04-25T14:49:25;95984.28;;;9.24
48003;BMP280;33768;48.578;11.574;2023-04-25T14:52:30;95988.72;;;9.02
48003;BMP280;33768;48.578;11.574;2023-04-25T14:55:35;95990.94;;;8.90
48003;BMP280;33768;48.578;11.574;2023-04-25T14:58:39;95997.41;;;8.87
48003;BMP280;33768;48.578;11.574;2023-04-25T15:01:44;96014.38;;;8.80
48003;BMP280;33768;48.578;11.574;2023-04-25T15:04:48;96020.03;;;8.70
48003;BMP280;33768;48.578;11.574;2023-04-25T15:07:52;96018.84;;;8.65
48003;BMP280;33768;48.578;11.574;2023-04-25T15:10:56;96027.84;;;8.60
48003;BMP280;33768;48.578;11.574;2023-04-25T15:14:01;96038.72;;;8.60
48003;BMP280;33768;48.578;11.574;2023-04-25T15:17:05;96036.72;;;8.48
48003;BMP280;33768;48.578;11.574;2023-04-25T15:20:11;96037.03;;;8.44
48003;BMP280;33768;48.578;11.574;2023-04-25T15:23:17;96039.81;;;8.96
48003;BMP280;33768;48.578;11.574;2023-04-25T15:26:21;96036.03;;;9.24
48003;BMP280;33768;48.578;11.574;2023-04-25T15:29:26;96036.16;;;9.06
48003;BMP280;33768;48.578;11.574;2023-04-25T15:32:31;96036.25;;;8.88
48003;BMP280;33768;48.578;11.574;2023-04-25T15:35:35;96048.19;;;8.72
48003;BMP280;33768;48.578;11.574;2023-04-25T15:38:39;96041.25;;;8.71
48003;BMP280;33768;48.578;11.574;2023-04-25T15:41:44;96049.00;;;8.80
48003;BMP280;33768;48.578;11.574;2023-04-25T15:44:48;96044.63;;;9.03
48003;BMP280;33768;48.578;11.574;2023-04-25T15:47:54;96040.22;;;9.25
48003;BMP280;33768;48.578;11.574;2023-04-25T15:50:59;96042.81;;;9.43
48003;BMP280;33768;48.578;11.574;2023-04-25T15:54:04;96048.38;;;9.51
48003;BMP280;33768;48.578;11.574;2023-04-25T15:57:08;96042.63;;;9.41
48003;BMP280;33768;48.578;11.574;2023-04-25T16:00:15;96052.34;;;9.37
48003;BMP280;33768;48.578;11.574;2023-04-25T16:03:21;96051.84;;;9.38
48003;BMP280;33768;48.578;11.574;2023-04-25T16:06:26;96054.69;;;9.33
48003;BMP280;33768;48.578;11.574;2023-04-25T16:09:31;96061.19;;;9.17
48003;BMP280;33768;48.578;11.574;2023-04-25T16:12:37;96056.03;;;9.01
48003;BMP280;33768;48.578;11.574;2023-04-25T16:15:41;96065.25;;;8.85
48003;BMP280;33768;48.578;11.574;2023-04-25T16:18:45;96049.97;;;8.95
48003;BMP280;33768;48.578;11.574;2023-04-25T16:21:50;96056.56;;;9.00
48003;BMP280;33768;48.578;11.574;2023-04-25T16:24:54;96059.69;;;9.04
48003;BMP280;33768;48.578;11.574;2023-04-25T16:27:59;96053.00;;;9.04
48003;BMP280;33768;48.578;11.574;2023-04-25T16:31:03;96058.44;;;9.04
48003;BMP280;33768;48.578;11.574;2023-04-25T16:34:07;96062.44;;;9.04
48003;BMP280;33768;48.578;11.574;2023-04-25T16:37:11;96072.59;;;9.03
48003;BMP280;33768;48.578;11.574;2023-04-25T16:40:15;96068.91;;;9.01
48003;BMP280;33768;48.578;11.574;2023-04-25T16:43:20;96077.59;;;8.99
48003;BMP280;33768;48.578;11.574;2023-04-25T16:46:24;96072.69;;;8.98
48003;BMP280;33768;48.578;11.574;2023-04-25T16:49:29;96080.19;;;8.92
48003;BMP280;33768;48.578;11.574;2023-04-25T16:52:33;96091.09;;;8.92
48003;BMP280;33768;48.578;11.574;2023-04-25T16:55:36;96091.91;;;8.87
48003;BMP280;33768;48.578;11.574;2023-04-25T16:58:41;96090.34;;;8.91
48003;BMP280;33768;48.578;11.574;2023-04-25T17:01:45;96094.25;;;8.96
48003;BMP280;33768;48.578;11.574;2023-04-25T17:04:49;96096.25;;;8.95
48003;BMP280;33768;48.578;11.574;2023-04-25T17:07:53;96106.28;;;8.87
48003;BMP280;33768;48.578;11.574;2023-04-25T17:10:57;96112.00;;;8.84
48003;BMP280;33768;48.578;11.574;2023-04-25T17:14:03;96116.38;;;8.74
48003;BMP280;33768;48.578;11.574;2023-04-25T17:17:07;96120.56;;;8.62
48003;BMP280;33768;48.578;11.574;2023-04-25T17:20:11;96125.06;;;8.60
48003;BMP280;33768;48.578;11.574;2023-04-25T17:23:18;96142.66;;;8.41
48003;BMP280;33768;48.578;11.574;2023-04-25T17:26:22;96152.00;;;8.27
48003;BMP280;33768;48.578;11.574;2023-04-25T17:29:27;96145.66;;;8.01
48003;BMP280;33768;48.578;11.574;2023-04-25T17:32:30;96139.06;;;7.96
48003;BMP280;33768;48.578;11.574;2023-04-25T17:35:35;96143.66;;;8.01
48003;BMP280;33768;48.578;11.574;2023-04-25T17:38:41;96137.91;;;8.10
48003;BMP280;33768;48.578;11.574;2023-04-25T17:41:45;96152.16;;;8.16
48003;BMP280;33768;48.578;11.574;2023-04-25T17:44:50;96152.69;;;8.14
48003;BMP280;33768;48.578;11.574;2023-04-25T17:47:54;96146.56;;;8.09
48003;BMP280;33768;48.578;11.574;2023-04-25T17:50:58;96151.09;;;8.01
48003;BMP280;33768;48.578;11.574;2023-04-25T17:54:02;96154.19;;;7.92
48003;BMP280;33768;48.578;11.574;2023-04-25T17:57:06;96158.75;;;7.84
48003;BMP280;33768;48.578;11.574;2023-04-25T18:00:10;96158.34;;;7.75